createdAt,value
2018-01-28T00:00:16.379Z,38.50
2018-01-28T00:02:45.353Z,44.93
2018-01-28T00:05:13.525Z,42.03
2018-01-28T00:07:42.511Z,59.03
2018-01-28T00:10:10.694Z,41.13
2018-01-28T00:12:38.891Z,50.50
2018-01-28T00:15:07.081Z,44.00
2018-01-28T00:17:36.063Z,43.27
2018-01-28T00:20:05.023Z,38.57
2018-01-28T00:22:33.215Z,41.77
2018-01-28T00:25:01.382Z,45.70
2018-01-28T00:27:29.566Z,41.57
2018-01-28T00:29:57.742Z,43.13
2018-01-28T00:32:25.910Z,42.47
2018-01-28T00:34:54.097Z,40.90
2018-01-28T00:37:22.301Z,44.37
2018-01-28T00:39:51.235Z,43.77
2018-01-28T00:42:19.440Z,45.03
2018-01-28T00:44:47.617Z,41.10
2018-01-28T00:47:15.785Z,52.47
2018-01-28T00:49:43.975Z,46.33
2018-01-28T00:52:12.929Z,40.77
2018-01-28T00:54:41.106Z,42.80
2018-01-28T00:57:09.305Z,41.87
2018-01-28T00:59:37.504Z,43.10
2018-01-28T01:02:06.437Z,55.17
2018-01-28T01:04:34.637Z,45.57
2018-01-28T01:07:03.010Z,40.03
2018-01-28T01:09:31.199Z,43.83
2018-01-28T01:11:59.394Z,53.17
2018-01-28T01:14:28.335Z,53.43
2018-01-28T01:16:56.534Z,48.23
2018-01-28T01:19:24.714Z,50.53
2018-01-28T01:21:52.880Z,51.00
2018-01-28T01:24:21.058Z,51.00
2018-01-28T01:26:49.265Z,36.20
2018-01-28T01:29:18.204Z,47.50
2018-01-28T01:31:46.375Z,49.17
2018-01-28T01:34:14.554Z,51.73
2018-01-28T01:36:42.754Z,48.37
2018-01-28T01:39:10.947Z,53.07
2018-01-28T01:41:39.889Z,44.43
2018-01-28T01:44:08.085Z,52.50
2018-01-28T01:46:36.269Z,41.77
2018-01-28T01:49:04.447Z,50.17
2018-01-28T01:51:32.625Z,48.27
2018-01-28T01:54:00.805Z,44.03
2018-01-28T01:56:28.976Z,38.73
2018-01-28T01:58:57.180Z,42.00
2018-01-28T02:01:26.142Z,47.73
2018-01-28T02:03:54.320Z,51.63
2018-01-28T02:06:22.493Z,42.50
2018-01-28T02:08:50.694Z,43.97
2018-01-28T02:11:19.659Z,41.93
2018-01-28T02:13:47.833Z,42.17
2018-01-28T02:16:16.009Z,47.30
2018-01-28T02:18:44.182Z,43.80
2018-01-28T02:21:12.350Z,47.93
2018-01-28T02:23:40.519Z,41.93
2018-01-28T02:26:08.724Z,43.53
2018-01-28T02:28:37.692Z,50.27
2018-01-28T02:31:05.930Z,54.23
2018-01-28T02:33:34.093Z,44.47
2018-01-28T02:36:02.299Z,45.17
2018-01-28T02:38:30.466Z,47.23
2018-01-28T02:40:58.637Z,51.70
2018-01-28T02:43:26.804Z,42.07
2018-01-28T02:45:54.973Z,52.37
2018-01-28T02:48:23.168Z,48.37
2018-01-28T02:50:51.370Z,57.20
2018-01-28T02:53:19.568Z,47.17
2018-01-28T02:55:48.517Z,48.77
2018-01-28T02:58:16.713Z,43.80
2018-01-28T03:00:44.881Z,58.20
2018-01-28T03:03:13.046Z,49.60
2018-01-28T03:05:41.211Z,48.67
2018-01-28T03:08:09.407Z,50.03
2018-01-28T03:10:37.589Z,49.73
2018-01-28T03:13:05.822Z,48.00
2018-01-28T03:15:34.021Z,52.50
2018-01-28T03:18:02.237Z,46.70
2018-01-28T03:20:31.183Z,49.47
2018-01-28T03:22:59.364Z,50.23
2018-01-28T03:25:27.548Z,50.03
2018-01-28T03:27:55.746Z,48.73
2018-01-28T03:30:24.728Z,49.67
2018-01-28T03:32:52.913Z,40.63
2018-01-28T03:35:21.907Z,41.17
2018-01-28T03:37:50.853Z,41.97
2018-01-28T03:40:19.030Z,48.53
2018-01-28T03:42:47.205Z,57.37
2018-01-28T03:45:15.379Z,46.60
2018-01-28T03:47:43.556Z,49.80
2018-01-28T03:50:11.722Z,49.50
2018-01-28T03:52:39.911Z,60.87
2018-01-28T03:55:08.081Z,55.30
2018-01-28T03:57:36.251Z,49.67
2018-01-28T04:00:04.466Z,50.50
2018-01-28T04:02:33.406Z,50.43
2018-01-28T04:05:01.577Z,47.80
2018-01-28T04:07:29.794Z,52.20
2018-01-28T04:09:57.993Z,46.90
2018-01-28T04:12:26.933Z,51.80
2018-01-28T04:14:55.099Z,51.33
2018-01-28T04:17:23.260Z,51.10
2018-01-28T04:19:51.454Z,46.10
2018-01-28T04:22:19.631Z,49.30
2018-01-28T04:24:47.800Z,59.53
2018-01-28T04:27:15.992Z,51.67
2018-01-28T04:29:44.961Z,58.83
2018-01-28T04:32:13.156Z,76.60
2018-01-28T04:34:41.330Z,58.73
2018-01-28T04:37:09.506Z,57.73
2018-01-28T04:39:37.684Z,61.40
2018-01-28T04:42:05.856Z,53.53
2018-01-28T04:44:34.029Z,61.53
2018-01-28T04:47:02.230Z,60.57
2018-01-28T04:49:30.405Z,69.73
2018-01-28T04:51:58.598Z,66.80
2018-01-28T04:54:27.533Z,60.73
2018-01-28T04:56:55.706Z,56.83
2018-01-28T04:59:23.897Z,69.53
2018-01-28T05:01:52.604Z,65.73
2018-01-28T05:04:20.841Z,66.37
2018-01-28T05:06:49.044Z,79.00
2018-01-28T05:09:17.237Z,59.83
2018-01-28T05:11:45.421Z,75.77
2018-01-28T05:14:14.362Z,70.70
2018-01-28T05:16:42.541Z,58.10
2018-01-28T05:19:10.722Z,62.37
2018-01-28T05:21:38.925Z,76.27
2018-01-28T05:24:07.133Z,70.43
2018-01-28T05:26:35.398Z,82.97
2018-01-28T05:29:04.374Z,71.45
2018-01-28T05:31:32.546Z,74.47
2018-01-28T05:34:01.503Z,81.07
2018-01-28T05:36:29.721Z,69.27
2018-01-28T05:38:57.901Z,73.73
2018-01-28T05:41:26.838Z,79.30
2018-01-28T05:43:55.019Z,80.93
2018-01-28T05:46:23.186Z,62.27
2018-01-28T05:48:51.382Z,63.30
2018-01-28T05:51:19.593Z,54.90
2018-01-28T05:53:48.527Z,88.57
2018-01-28T05:56:16.703Z,53.10
2018-01-28T05:58:44.890Z,54.00
2018-01-28T06:01:13.073Z,54.27
2018-01-28T06:03:41.256Z,63.30
2018-01-28T06:06:09.423Z,58.50
2018-01-28T06:08:37.594Z,62.93
2018-01-28T06:11:05.802Z,61.10
2018-01-28T06:13:33.971Z,71.27
2018-01-28T06:16:02.130Z,62.00
2018-01-28T06:18:30.302Z,62.63
2018-01-28T06:20:58.482Z,57.80
2018-01-28T06:23:26.683Z,68.53
2018-01-28T06:25:55.614Z,64.70
2018-01-28T06:28:23.777Z,65.73
2018-01-28T06:30:51.961Z,65.63
2018-01-28T06:33:20.136Z,60.50
2018-01-28T06:35:48.318Z,73.50
2018-01-28T06:38:16.491Z,68.27
2018-01-28T06:40:44.659Z,76.33
2018-01-28T06:43:12.833Z,67.87
2018-01-28T06:45:40.993Z,69.80
2018-01-28T06:48:09.163Z,62.70
2018-01-28T06:50:37.332Z,72.13
2018-01-28T06:53:06.262Z,60.20
2018-01-28T06:55:34.434Z,57.07
2018-01-28T06:58:02.609Z,55.40
2018-01-28T07:00:30.777Z,92.27
2018-01-28T07:02:58.988Z,64.63
2018-01-28T07:05:27.196Z,61.37
2018-01-28T07:07:56.149Z,60.70
2018-01-28T07:10:24.563Z,51.80
2018-01-28T07:12:53.498Z,58.33
2018-01-28T07:15:21.668Z,76.67
2018-01-28T07:17:49.852Z,67.67
2018-01-28T07:20:22.850Z,61.90
2018-01-28T07:22:51.052Z,66.23
2018-01-28T07:25:19.221Z,74.07
2018-01-28T07:27:47.394Z,55.70
2018-01-28T07:30:15.569Z,73.37
2018-01-28T07:32:43.776Z,64.10
2018-01-28T07:35:11.940Z,61.63
2018-01-28T07:37:40.871Z,58.63
2018-01-28T07:40:09.054Z,62.83
2018-01-28T07:42:37.231Z,60.03
2018-01-28T07:45:05.401Z,55.57
2018-01-28T07:47:33.566Z,56.90
2018-01-28T07:50:01.762Z,73.87
2018-01-28T07:52:29.929Z,49.07
2018-01-28T07:54:58.130Z,51.83
2018-01-28T07:57:26.335Z,65.10
2018-01-28T07:59:54.526Z,51.33
2018-01-28T08:02:22.700Z,55.47
2018-01-28T08:04:50.861Z,54.83
2018-01-28T08:07:19.828Z,51.00
2018-01-28T08:09:51.982Z,52.20
2018-01-28T08:12:23.000Z,58.93
2018-01-28T08:14:51.193Z,53.30
2018-01-28T08:20:33.468Z,61.20
2018-01-28T08:23:01.650Z,60.63
2018-01-28T08:25:29.943Z,56.47
2018-01-28T08:27:58.131Z,56.20
2018-01-28T08:30:26.313Z,59.67
2018-01-28T08:32:55.306Z,49.97
2018-01-28T08:35:23.505Z,59.43
2018-01-28T08:37:51.686Z,51.40
2018-01-28T08:40:20.650Z,50.60
2018-01-28T08:42:48.866Z,52.23
2018-01-28T08:45:17.806Z,46.07
2018-01-28T08:47:46.009Z,51.03
2018-01-28T08:50:14.186Z,41.13
2018-01-28T08:52:42.372Z,53.63
2018-01-28T08:55:10.571Z,49.77
2018-01-28T08:57:39.536Z,50.17
2018-01-28T09:00:08.630Z,43.27
2018-01-28T09:02:36.794Z,43.37
2018-01-28T09:05:05.017Z,42.50
2018-01-28T09:07:33.206Z,47.67
2018-01-28T09:10:01.371Z,39.80
2018-01-28T09:12:29.540Z,46.60
2018-01-28T09:14:57.728Z,48.63
2018-01-28T09:17:25.906Z,50.53
2018-01-28T09:19:54.080Z,50.33
2018-01-28T09:22:22.237Z,52.67
2018-01-28T09:24:50.425Z,53.13
2018-01-28T09:27:18.617Z,52.13
2018-01-28T09:29:46.795Z,44.50
2018-01-28T09:32:14.966Z,49.53
2018-01-28T09:34:43.129Z,48.97
2018-01-28T09:37:11.306Z,44.07
2018-01-28T09:39:39.493Z,47.63
2018-01-28T09:42:07.662Z,53.77
2018-01-28T09:44:35.837Z,53.07
2018-01-28T09:47:04.012Z,45.07
2018-01-28T09:49:32.200Z,54.50
2018-01-28T09:52:00.369Z,51.50
2018-01-28T09:54:28.538Z,47.83
2018-01-28T09:56:56.708Z,45.33
2018-01-28T09:59:24.897Z,52.03
2018-01-28T10:01:53.075Z,52.87
2018-01-28T10:04:21.242Z,45.10
2018-01-28T10:06:49.446Z,47.53
2018-01-28T10:09:17.612Z,44.87
2018-01-28T10:11:45.804Z,44.27
2018-01-28T10:14:14.777Z,49.00
2018-01-28T10:16:43.743Z,46.10
2018-01-28T10:19:12.000Z,44.17
2018-01-28T10:21:40.197Z,51.13
2018-01-28T10:24:08.361Z,39.93
2018-01-28T10:26:36.527Z,44.53
2018-01-28T10:29:04.711Z,40.37
2018-01-28T10:31:32.885Z,37.70
2018-01-28T10:34:01.402Z,51.73
2018-01-28T10:36:29.952Z,42.53
2018-01-28T10:38:58.139Z,46.47
2018-01-28T10:41:26.307Z,45.63
2018-01-28T10:43:54.517Z,45.60
2018-01-28T10:46:22.695Z,45.30
2018-01-28T10:48:50.870Z,41.40
2018-01-28T10:51:19.060Z,41.33
2018-01-28T10:53:48.011Z,41.37
2018-01-28T10:56:16.178Z,40.10
2018-01-28T10:58:44.367Z,43.47
2018-01-28T11:01:12.545Z,34.37
2018-01-28T11:03:40.713Z,43.70
2018-01-28T11:06:08.902Z,44.50
2018-01-28T11:08:37.066Z,35.63
2018-01-28T11:11:05.265Z,38.00
2018-01-28T11:13:34.229Z,38.23
2018-01-28T11:16:02.396Z,42.77
2018-01-28T11:18:30.607Z,37.80
2018-01-28T11:20:58.777Z,38.03
2018-01-28T11:23:26.965Z,40.40
2018-01-28T11:25:55.932Z,42.30
2018-01-28T11:28:24.129Z,35.30
2018-01-28T11:30:53.076Z,34.60
2018-01-28T11:33:21.251Z,40.60
2018-01-28T11:35:49.412Z,38.30
2018-01-28T11:38:17.605Z,37.40
2018-01-28T11:40:45.780Z,39.00
2018-01-28T11:43:14.595Z,41.00
2018-01-28T11:45:42.786Z,39.20
2018-01-28T11:48:11.731Z,38.70
2018-01-28T11:50:40.667Z,36.20
2018-01-28T11:53:10.434Z,40.70
2018-01-28T11:55:38.602Z,39.20
2018-01-28T11:58:06.823Z,34.83
2018-01-28T12:00:35.023Z,41.37
2018-01-28T12:03:03.957Z,34.20
2018-01-28T12:05:32.124Z,32.57
2018-01-28T12:08:00.304Z,36.27
2018-01-28T12:10:29.437Z,39.10
2018-01-28T12:12:57.623Z,36.33
2018-01-28T12:15:26.562Z,33.40
2018-01-28T12:17:54.779Z,34.83
2018-01-28T12:20:22.985Z,33.03
2018-01-28T12:22:51.163Z,36.00
2018-01-28T12:25:19.367Z,33.37
2018-01-28T12:27:47.550Z,33.87
2018-01-28T12:30:15.757Z,36.93
2018-01-28T12:32:43.957Z,37.80
2018-01-28T12:35:12.159Z,35.00
2018-01-28T12:37:40.359Z,34.47
2018-01-28T12:40:08.568Z,35.90
2018-01-28T12:42:37.515Z,35.03
2018-01-28T12:45:05.708Z,38.80
2018-01-28T12:47:33.874Z,35.17
2018-01-28T12:50:02.062Z,33.80
2018-01-28T12:52:30.256Z,34.17
2018-01-28T12:54:59.238Z,32.73
2018-01-28T12:57:27.409Z,35.07
2018-01-28T12:59:55.589Z,32.67
2018-01-28T13:02:23.779Z,32.80
2018-01-28T13:04:52.745Z,34.80
2018-01-28T13:07:20.932Z,33.90
2018-01-28T13:09:49.109Z,34.70
2018-01-28T13:12:18.056Z,34.67
2018-01-28T13:14:46.237Z,34.10
2018-01-28T13:17:14.496Z,35.70
2018-01-28T13:19:43.434Z,33.83
2018-01-28T13:22:11.606Z,34.50
2018-01-28T13:24:39.797Z,34.20
2018-01-28T13:27:08.738Z,31.83
2018-01-28T13:29:36.922Z,33.97
2018-01-28T13:32:05.094Z,32.33
2018-01-28T13:34:33.619Z,32.40
2018-01-28T13:37:02.602Z,33.70
2018-01-28T13:39:30.782Z,34.50
2018-01-28T13:41:58.977Z,36.07
2018-01-28T13:44:27.951Z,36.17
2018-01-28T13:46:56.155Z,36.03
2018-01-28T13:49:24.340Z,34.93
2018-01-28T13:51:52.552Z,35.53
2018-01-28T13:54:21.301Z,40.00
2018-01-28T13:56:49.470Z,35.93
2018-01-28T13:59:17.651Z,36.23
2018-01-28T14:01:45.821Z,33.90
2018-01-28T14:04:14.030Z,37.00
2018-01-28T14:06:42.956Z,34.57
2018-01-28T14:09:11.145Z,34.60
2018-01-28T14:11:40.083Z,37.70
2018-01-28T14:14:08.262Z,33.90
2018-01-28T14:16:36.436Z,41.70
2018-01-28T14:19:04.634Z,41.93
2018-01-28T14:21:32.809Z,42.53
2018-01-28T14:24:00.985Z,43.77
2018-01-28T14:26:29.174Z,38.27
2018-01-28T14:28:58.143Z,40.57
2018-01-28T14:31:26.338Z,40.30
2018-01-28T14:33:54.538Z,45.57
2018-01-28T14:36:23.482Z,41.03
2018-01-28T14:38:51.664Z,40.13
2018-01-28T14:41:19.834Z,42.90
2018-01-28T14:43:48.028Z,49.07
2018-01-28T14:46:16.247Z,43.10
2018-01-28T14:48:45.313Z,46.87
2018-01-28T14:51:14.272Z,44.00
2018-01-28T14:53:42.449Z,45.70
2018-01-28T14:56:10.631Z,46.10
2018-01-28T14:58:38.803Z,46.70
2018-01-28T15:01:07.026Z,46.00
2018-01-28T15:03:35.190Z,45.63
2018-01-28T15:06:03.366Z,44.80
2018-01-28T15:08:32.295Z,39.43
2018-01-28T15:11:00.474Z,43.50
2018-01-28T15:13:28.706Z,50.80
2018-01-28T15:15:56.882Z,51.63
2018-01-28T15:18:25.063Z,46.17
2018-01-28T15:20:53.234Z,54.40
2018-01-28T15:23:21.419Z,57.30
2018-01-28T15:25:49.619Z,52.57
2018-01-28T15:28:17.796Z,61.43
2018-01-28T15:30:45.991Z,48.47
2018-01-28T15:33:14.196Z,48.07
2018-01-28T15:35:43.132Z,54.50
2018-01-28T15:38:11.307Z,56.33
2018-01-28T15:40:39.482Z,50.43
2018-01-28T15:43:07.651Z,64.30
2018-01-28T15:45:36.013Z,52.77
2018-01-28T15:48:04.183Z,53.40
2018-01-28T15:50:32.369Z,53.50
2018-01-28T15:53:00.561Z,46.20
2018-01-28T15:55:28.831Z,48.47
2018-01-28T15:57:57.063Z,50.50
2018-01-28T16:00:26.007Z,45.13
2018-01-28T16:02:54.194Z,50.93
2018-01-28T16:05:22.378Z,49.80
2018-01-28T16:07:50.576Z,56.43
2018-01-28T16:10:19.514Z,46.27
2018-01-28T16:12:47.689Z,51.93
2018-01-28T16:15:15.862Z,51.07
2018-01-28T16:17:44.051Z,53.33
2018-01-28T16:20:12.225Z,56.40
2018-01-28T16:22:40.424Z,48.77
2018-01-28T16:25:08.609Z,51.63
2018-01-28T16:27:36.884Z,49.57
2018-01-28T16:30:05.060Z,57.67
2018-01-28T16:32:33.315Z,53.43
2018-01-28T16:35:01.486Z,50.03
2018-01-28T16:37:29.668Z,53.80
2018-01-28T16:39:58.626Z,51.00
2018-01-28T16:42:26.810Z,48.73
2018-01-28T16:44:55.002Z,49.70
2018-01-28T16:47:23.213Z,51.37
2018-01-28T16:49:52.157Z,55.17
2018-01-28T16:52:20.376Z,58.37
2018-01-28T16:54:48.571Z,54.53
2018-01-28T16:57:17.557Z,54.83
2018-01-28T16:59:46.519Z,55.87
2018-01-28T17:02:14.689Z,56.67
2018-01-28T17:04:42.863Z,60.83
2018-01-28T17:07:11.037Z,63.30
2018-01-28T17:09:39.224Z,60.60
2018-01-28T17:12:07.429Z,62.73
2018-01-28T17:14:36.370Z,59.73
2018-01-28T17:17:04.594Z,65.33
2018-01-28T17:19:33.548Z,53.33
2018-01-28T17:22:01.726Z,57.20
2018-01-28T17:24:29.928Z,65.33
2018-01-28T17:26:58.881Z,61.73
2018-01-28T17:29:27.076Z,52.70
2018-01-28T17:31:55.248Z,62.10
2018-01-28T17:34:23.415Z,48.37
2018-01-28T17:36:51.606Z,62.43
2018-01-28T17:39:19.785Z,52.43
2018-01-28T17:41:47.954Z,56.10
2018-01-28T17:44:16.150Z,62.37
2018-01-28T17:46:45.093Z,59.40
2018-01-28T17:49:13.275Z,62.07
2018-01-28T17:51:41.448Z,58.17
2018-01-28T17:54:09.634Z,59.40
2018-01-28T17:56:37.838Z,54.20
2018-01-28T17:59:06.776Z,49.97
2018-01-28T18:01:34.956Z,59.70
2018-01-28T18:04:03.136Z,57.80
2018-01-28T18:06:31.302Z,64.00
2018-01-28T18:08:59.483Z,60.67
2018-01-28T18:11:27.654Z,56.80
2018-01-28T18:13:55.821Z,63.23
2018-01-28T18:16:24.012Z,61.63
2018-01-28T18:18:52.172Z,62.50
2018-01-28T18:21:20.384Z,63.23
2018-01-28T18:23:48.629Z,53.33
2018-01-28T18:26:16.820Z,54.07
2018-01-28T18:28:45.038Z,59.50
2018-01-28T18:31:13.229Z,52.67
2018-01-28T18:33:41.411Z,67.07
2018-01-28T18:36:09.590Z,59.10
2018-01-28T18:38:37.778Z,66.23
2018-01-28T18:41:05.994Z,60.20
2018-01-28T18:43:34.954Z,62.40
2018-01-28T18:46:03.129Z,69.60
2018-01-28T18:48:31.307Z,68.07
2018-01-28T18:50:59.504Z,61.97
2018-01-28T18:53:27.695Z,63.20
2018-01-28T18:55:56.642Z,57.97
2018-01-28T18:58:24.812Z,64.30
2018-01-28T19:00:52.980Z,64.30
2018-01-28T19:03:21.153Z,66.87
2018-01-28T19:05:49.324Z,57.10
2018-01-28T19:08:17.499Z,61.60
2018-01-28T19:10:45.679Z,57.53
2018-01-28T19:13:13.855Z,72.90
2018-01-28T19:15:42.024Z,68.07
2018-01-28T19:18:10.204Z,67.63
2018-01-28T19:20:38.366Z,84.63
2018-01-28T19:23:06.532Z,65.43
2018-01-28T19:25:34.729Z,78.97
2018-01-28T19:28:02.967Z,71.53
2018-01-28T19:30:31.909Z,61.13
2018-01-28T19:33:00.079Z,58.67
2018-01-28T19:35:28.242Z,62.03
2018-01-28T19:37:56.432Z,71.67
2018-01-28T19:40:24.623Z,67.60
2018-01-28T19:42:52.791Z,69.27
2018-01-28T19:45:20.955Z,62.53
2018-01-28T19:47:49.122Z,60.03
2018-01-28T19:50:17.303Z,59.93
2018-01-28T19:52:45.469Z,59.30
2018-01-28T19:55:13.630Z,71.73
2018-01-28T19:57:41.803Z,61.60
2018-01-28T20:00:09.973Z,61.17
2018-01-28T20:02:38.170Z,65.33
2018-01-28T20:05:06.337Z,66.17
2018-01-28T20:07:34.506Z,66.97
2018-01-28T20:10:02.688Z,70.73
2018-01-28T20:12:30.862Z,65.53
2018-01-28T20:14:59.134Z,69.17
2018-01-28T20:17:27.310Z,73.53
2018-01-28T20:19:55.516Z,66.50
2018-01-28T20:22:23.698Z,77.57
2018-01-28T20:24:51.894Z,66.37
2018-01-28T20:27:20.830Z,73.90
2018-01-28T20:29:49.208Z,63.00
2018-01-28T20:32:17.965Z,71.47
2018-01-28T20:34:46.727Z,70.10
2018-01-28T20:37:19.271Z,62.93
2018-01-28T20:39:47.448Z,69.80
2018-01-28T20:42:15.908Z,70.77
2018-01-28T20:44:44.513Z,75.57
2018-01-28T20:47:13.588Z,69.83
2018-01-28T20:49:41.787Z,77.97
2018-01-28T20:52:09.959Z,73.03
2018-01-28T20:54:38.423Z,76.20
2018-01-28T20:57:08.030Z,75.80
2018-01-28T20:59:36.492Z,80.93
2018-01-28T21:02:09.650Z,83.47
2018-01-28T21:04:37.822Z,83.13
2018-01-28T21:07:07.029Z,77.47
2018-01-28T21:09:37.922Z,65.77
2018-01-28T21:12:06.111Z,75.03
2018-01-28T21:14:34.305Z,72.50
2018-01-28T21:17:03.298Z,70.23
2018-01-28T21:19:31.519Z,66.53
2018-01-28T21:21:59.840Z,67.17
2018-01-28T21:24:28.015Z,78.83
2018-01-28T21:26:56.231Z,79.53
2018-01-28T21:29:25.168Z,70.50
2018-01-28T21:31:53.395Z,83.50
2018-01-28T21:34:22.318Z,78.17
2018-01-28T21:36:50.501Z,67.00
2018-01-28T21:39:18.686Z,63.93
2018-01-28T21:41:46.857Z,82.63
2018-01-28T21:44:15.038Z,69.47
2018-01-28T21:46:43.270Z,72.33
2018-01-28T21:49:12.186Z,68.80
2018-01-28T21:51:40.356Z,71.33
2018-01-28T21:54:08.526Z,68.80
2018-01-28T21:56:36.695Z,69.70
2018-01-28T21:59:04.896Z,74.83
2018-01-28T22:01:33.110Z,75.73
2018-01-28T22:04:02.054Z,68.67
2018-01-28T22:06:30.250Z,73.03
2018-01-28T22:08:58.450Z,75.50
2018-01-28T22:11:26.623Z,70.97
2018-01-28T22:13:54.803Z,76.83
2018-01-28T22:16:23.741Z,66.10
2018-01-28T22:18:51.928Z,70.13
2018-01-28T22:21:20.106Z,69.83
2018-01-28T22:23:48.269Z,76.40
2018-01-28T22:26:16.439Z,75.43
2018-01-28T22:28:44.630Z,78.50
2018-01-28T22:31:12.808Z,96.10
2018-01-28T22:33:41.029Z,75.03
2018-01-28T22:36:09.200Z,78.17
2018-01-28T22:38:38.150Z,76.73
2018-01-28T22:41:06.319Z,73.57
2018-01-28T22:43:34.481Z,77.43
2018-01-28T22:46:02.661Z,69.37
2018-01-28T22:48:30.838Z,77.30
2018-01-28T22:50:58.989Z,67.07
2018-01-28T22:53:27.165Z,75.80
2018-01-28T22:55:55.344Z,76.07
2018-01-28T22:58:23.506Z,75.17
2018-01-28T23:00:51.677Z,72.63
2018-01-28T23:03:19.879Z,72.90
2018-01-28T23:05:48.066Z,76.67
2018-01-28T23:08:16.230Z,72.83
2018-01-28T23:10:44.426Z,70.30
2018-01-28T23:13:12.614Z,80.07
2018-01-28T23:15:40.773Z,71.00
2018-01-28T23:18:08.955Z,71.63
2018-01-28T23:20:37.151Z,69.20
2018-01-28T23:23:06.104Z,71.73
2018-01-28T23:25:34.296Z,71.93
2018-01-28T23:28:02.467Z,72.53
2018-01-28T23:30:30.670Z,67.90
2018-01-28T23:32:59.618Z,60.03
2018-01-28T23:35:27.802Z,75.20
2018-01-28T23:37:56.014Z,82.17
2018-01-28T23:40:24.956Z,103.53
2018-01-28T23:42:53.125Z,118.30
2018-01-28T23:45:21.288Z,75.67
2018-01-28T23:47:49.491Z,67.33
2018-01-28T23:50:17.663Z,78.30
2018-01-28T23:52:45.843Z,65.13
2018-01-28T23:55:14.014Z,70.20
2018-01-28T23:57:42.942Z,72.83
